Time;durP1;ratioP1;P1;durP2;ratioP2;P2;SDS_P1;SDS_P2;PMS_P1;PMS_P2;Temp;Humidity;BMP_temperature;BMP_pressure;BME280_temperature;BME280_humidity;BME280_pressure;Samples;Min_cycle;Max_cycle;Signal;HPM_P1;HPM_P2
2023/10/04 00:01:56;;;;;;;27.33;13.20;;;20.30;92.80;;;;;;5054672;28;20059;-64
2023/10/04 00:04:59;;;;;;;23.10;13.52;;;20.20;92.90;;;;;;5054718;28;20040;-64
2023/10/04 00:08:04;;;;;;;25.38;12.00;;;20.10;92.90;;;;;;5054328;28;20051;-64
2023/10/04 00:11:14;;;;;;;24.67;13.05;;;20.10;92.90;;;;;;5054295;28;20048;-64
2023/10/04 00:14:18;;;;;;;23.50;12.95;;;19.90;93.00;;;;;;5054381;28;20207;-64
2023/10/04 00:17:22;;;;;;;26.63;12.75;;;19.90;92.90;;;;;;5054403;28;20040;-64
2023/10/04 00:20:31;;;;;;;26.65;11.73;;;20.00;92.80;;;;;;5054326;28;20047;-63
2023/10/04 00:23:39;;;;;;;25.08;12.13;;;18.90;92.50;;;;;;5054531;28;20071;-64
2023/10/04 00:26:43;;;;;;;23.70;11.93;;;20.10;92.80;;;;;;5053924;28;20040;-64
2023/10/04 00:29:47;;;;;;;29.88;12.75;;;;;;;;;;5053894;28;20044;-64
2023/10/04 00:32:53;;;;;;;28.40;14.02;;;19.80;92.60;;;;;;5054056;28;20036;-64
2023/10/04 00:35:57;;;;;;;25.15;12.73;;;;;;;;;;5053643;28;20044;-64
2023/10/04 00:39:01;;;;;;;27.73;13.35;;;;;;;;;;5053675;28;20048;-64
2023/10/04 00:42:05;;;;;;;26.17;13.15;;;19.00;93.00;;;;;;5053862;28;20119;-64
2023/10/04 00:45:13;;;;;;;22.17;12.38;;;19.70;93.30;;;;;;5053754;28;20627;-64
2023/10/04 00:48:38;;;;;;;24.13;11.88;;;19.80;93.20;;;;;;5053577;28;20043;-64
2023/10/04 00:51:42;;;;;;;29.05;13.70;;;;;;;;;;5053559;28;20044;-64
2023/10/04 00:54:46;;;;;;;26.02;13.20;;;;;;;;;;5052709;28;20052;-64
2023/10/04 00:57:52;;;;;;;22.98;13.35;;;20.70;94.10;;;;;;5052442;28;20040;-65
2023/10/04 01:00:56;;;;;;;24.73;13.18;;;;;;;;;;5052374;28;20067;-64
2023/10/04 01:04:01;;;;;;;40.75;15.90;;;;;;;;;;5052624;28;20056;-65
2023/10/04 01:07:06;;;;;;;25.73;14.40;;;;;;;;;;5053428;28;20048;-64
2023/10/04 01:10:15;;;;;;;30.60;14.35;;;;;;;;;;5052772;28;20044;-64
2023/10/04 01:13:22;;;;;;;28.27;14.07;;;;;;;;;;5052408;28;20044;-64
2023/10/04 01:16:26;;;;;;;32.95;14.10;;;19.70;94.30;;;;;;5053308;28;20059;-64
2023/10/04 01:19:30;;;;;;;26.80;12.90;;;;;;;;;;5053029;28;20040;-64
2023/10/04 01:22:35;;;;;;;29.95;12.82;;;;;;;;;;5053106;28;20044;-64
2023/10/04 01:25:43;;;;;;;24.90;12.25;;;19.60;94.00;;;;;;5052809;28;20044;-64
2023/10/04 01:28:47;;;;;;;20.52;12.57;;;20.50;94.30;;;;;;5053118;28;20052;-64
2023/10/04 01:31:53;;;;;;;24.88;12.55;;;;;;;;;;5053118;28;20047;-64
2023/10/04 01:34:59;;;;;;;21.42;12.15;;;18.70;93.70;;;;;;5052637;28;20063;-64
2023/10/04 01:38:06;;;;;;;22.35;12.30;;;19.80;94.10;;;;;;5052582;28;20044;-64
2023/10/04 01:41:10;;;;;;;26.92;12.98;;;;;;;;;;5052047;28;20048;-64
2023/10/04 01:44:15;;;;;;;24.60;13.15;;;;;;;;;;5051710;28;20112;-64
2023/10/04 01:47:20;;;;;;;22.30;12.82;;;;;;;;;;5052482;28;20369;-64
2023/10/04 01:50:25;;;;;;;24.48;13.68;;;;;;;;;;5052509;28;20393;-65
2023/10/04 01:53:29;;;;;;;25.60;13.43;;;;;;;;;;5052430;28;20052;-64
2023/10/04 01:56:33;;;;;;;22.55;13.40;;;;;;;;;;5052011;28;20044;-64
2023/10/04 01:59:37;;;;;;;32.92;13.77;;;18.90;94.80;;;;;;5051435;28;20472;-64
2023/10/04 02:02:42;;;;;;;27.17;13.48;;;;;;;;;;5051941;28;20400;-64
2023/10/04 02:05:50;;;;;;;23.33;13.05;;;19.10;95.40;;;;;;5052163;28;20048;-64
2023/10/04 02:08:54;;;;;;;28.08;13.35;;;;;;;;;;5052281;28;20068;-64
2023/10/04 02:11:59;;;;;;;23.67;13.55;;;;;;;;;;5052246;28;20044;-64
2023/10/04 02:15:06;;;;;;;26.50;14.10;;;;;;;;;;5051174;28;20511;-64
2023/10/04 02:18:10;;;;;;;22.50;13.00;;;;;;;;;;5051885;28;20044;-64
2023/10/04 02:21:17;;;;;;;22.48;14.20;;;;;;;;;;5051876;28;20396;-64
2023/10/04 02:24:21;;;;;;;28.15;13.52;;;;;;;;;;5051679;28;20048;-64
2023/10/04 02:27:27;;;;;;;23.40;13.60;;;;;;;;;;5051467;28;20400;-64
2023/10/04 02:30:31;;;;;;;26.58;13.90;;;;;;;;;;5051789;28;20503;-64
2023/10/04 02:33:38;;;;;;;27.48;13.30;;;;;;;;;;5051633;28;20052;-63
2023/10/04 02:36:44;;;;;;;27.08;13.82;;;;;;;;;;5050839;28;20048;-64
2023/10/04 02:39:48;;;;;;;24.10;13.65;;;;;;;;;;5051063;28;20048;-64
2023/10/04 02:42:56;;;;;;;24.85;14.25;;;;;;;;;;5051043;28;20052;-64
2023/10/04 02:46:01;;;;;;;23.10;12.52;;;;;;;;;;5050860;28;20043;-65
2023/10/04 02:49:09;;;;;;;24.20;13.15;;;;;;;;;;5050641;28;20052;-65
2023/10/04 02:52:13;;;;;;;24.15;12.90;;;;;;;;;;5050486;28;20040;-64
2023/10/04 02:55:19;;;;;;;23.85;12.63;;;18.80;94.90;;;;;;5050369;28;20071;-64
2023/10/04 02:58:24;;;;;;;21.17;12.50;;;19.00;95.20;;;;;;5050320;28;20044;-64
2023/10/04 03:01:30;;;;;;;25.60;12.68;;;18.90;94.90;;;;;;5050315;28;20044;-64
2023/10/04 03:04:34;;;;;;;23.10;13.00;;;;;;;;;;5050521;28;20068;-64
2023/10/04 03:07:41;;;;;;;23.95;14.52;;;19.10;95.00;;;;;;5050043;28;20036;-64
2023/10/04 03:10:50;;;;;;;28.23;16.48;;;;;;;;;;5049936;28;20047;-64
2023/10/04 03:13:59;;;;;;;36.72;17.88;;;;;;;;;;5050410;28;20036;-64
2023/10/04 03:17:03;;;;;;;32.13;17.33;;;;;;;;;;5050008;28;20508;-64
2023/10/04 03:20:19;;;;;;;25.30;15.85;;;;;;;;;;5051232;28;20052;-64
2023/10/04 03:23:25;;;;;;;27.70;15.65;;;;;;;;;;5050045;28;20048;-64
2023/10/04 03:26:30;;;;;;;29.10;14.80;;;;;;;;;;5049912;28;20036;-64
2023/10/04 03:29:36;;;;;;;23.88;13.10;;;;;;;;;;5050774;28;20511;-64
2023/10/04 03:32:49;;;;;;;25.13;13.77;;;18.50;96.10;;;;;;5050905;28;20055;-64
2023/10/04 03:35:57;;;;;;;24.67;14.57;;;;;;;;;;5038558;28;20052;-65
2023/10/04 03:39:03;;;;;;;25.30;14.65;;;;;;;;;;5038594;28;20048;-64
2023/10/04 03:42:11;;;;;;;26.90;14.52;;;;;;;;;;5050287;28;20124;-64
2023/10/04 03:45:18;;;;;;;24.67;13.77;;;;;;;;;;5050151;28;20527;-64
2023/10/04 03:48:23;;;;;;;30.40;14.98;;;;;;;;;;5038600;28;20036;-64
2023/10/04 03:51:37;;;;;;;26.73;15.23;;;;;;;;;;5050103;28;20210;-64
2023/10/04 03:54:46;;;;;;;32.08;16.67;;;;;;;;;;5049964;28;20051;-64
2023/10/04 03:57:51;;;;;;;31.60;15.85;;;;;;;;;;5049893;28;20072;-64
2023/10/04 04:00:55;;;;;;;30.67;15.85;;;;;;;;;;5049784;28;20040;-64
2023/10/04 04:04:03;;;;;;;35.85;16.38;;;;;;;;;;5050605;28;20535;-64
2023/10/04 04:07:07;;;;;;;32.35;15.93;;;;;;;;;;5050352;28;20064;-64
2023/10/04 04:10:12;;;;;;;23.67;15.35;;;;;;;;;;5050645;28;20044;-64
2023/10/04 04:13:18;;;;;;;31.20;16.20;;;;;;;;;;5049638;28;20044;-64
2023/10/04 04:16:23;;;;;;;25.45;15.50;;;;;;;;;;5038042;28;20048;-64
2023/10/04 04:19:27;;;;;;;27.15;15.98;;;;;;;;;;5049580;28;20151;-64
2023/10/04 04:22:32;;;;;;;31.27;15.57;;;;;;;;;;5049541;28;20048;-64
2023/10/04 04:25:38;;;;;;;34.58;15.35;;;;;;;;;;5049783;28;20056;-64
2023/10/04 04:28:43;;;;;;;27.83;15.55;;;;;;;;;;5049496;28;20052;-64
2023/10/04 04:31:52;;;;;;;32.60;15.52;;;;;;;;;;5049212;28;20060;-64
2023/10/04 04:34:57;;;;;;;26.88;14.73;;;;;;;;;;5049053;28;20598;-64
2023/10/04 04:38:19;;;;;;;29.02;16.10;;;18.30;96.10;;;;;;5053227;28;20048;-64
2023/10/04 04:41:27;;;;;;;38.47;17.20;;;;;;;;;;5052913;28;20044;-64
2023/10/04 04:44:35;;;;;;;33.88;18.95;;;;;;;;;;5052889;28;20496;-64
2023/10/04 04:47:44;;;;;;;36.58;20.23;;;;;;;;;;5053109;28;20562;-64
2023/10/04 04:50:49;;;;;;;43.22;17.73;;;;;;;;;;5052918;28;20520;-64
2023/10/04 04:53:54;;;;;;;37.80;17.80;;;;;;;;;;5052662;28;20044;-64
2023/10/04 04:57:05;;;;;;;35.90;17.80;;;;;;;;;;5052602;28;20048;-64
2023/10/04 05:00:31;;;;;;;40.92;18.00;;;;;;;;;;5052495;28;20043;-64
2023/10/04 05:03:34;;;;;;;31.52;17.40;;;;;;;;;;5053497;28;20044;-64
2023/10/04 05:06:39;;;;;;;32.08;16.77;;;;;;;;;;5053384;28;20048;-64
2023/10/04 05:09:44;;;;;;;33.70;16.63;;;;;;;;;;5053181;28;20503;-64
2023/10/04 05:12:48;;;;;;;31.65;15.27;;;;;;;;;;5053478;28;20036;-64
2023/10/04 05:15:53;;;;;;;30.88;15.70;;;;;;;;;;5052980;28;20150;-64
2023/10/04 05:18:58;;;;;;;45.75;15.85;;;;;;;;;;5053239;28;20061;-64
2023/10/04 05:22:02;;;;;;;45.50;15.38;;;;;;;;;;5053127;28;20044;-62
2023/10/04 05:25:07;;;;;;;36.88;14.68;;;;;;;;;;5052784;28;20634;-62
2023/10/04 05:28:13;;;;;;;36.63;15.38;;;;;;;;;;5052962;28;20048;-62
2023/10/04 05:31:18;;;;;;;34.78;16.20;;;;;;;;;;5052039;28;20040;-62
2023/10/04 05:34:22;;;;;;;34.78;15.35;;;;;;;;;;5052456;28;20060;-63
2023/10/04 05:37:26;;;;;;;27.52;13.15;;;;;;;;;;5052376;28;20412;-62
2023/10/04 05:40:31;;;;;;;23.90;13.80;;;20.10;93.40;;;;;;5052454;28;20044;-63
2023/10/04 05:43:35;;;;;;;31.85;14.20;;;;;;;;;;5052654;28;20525;-62
2023/10/04 05:46:44;;;;;;;35.10;15.38;;;20.30;92.20;;;;;;5052545;28;20040;-62
2023/10/04 05:49:48;;;;;;;40.85;15.35;;;20.70;93.20;;;;;;5052031;28;20047;-63
2023/10/04 05:52:53;;;;;;;34.53;15.20;;;18.70;93.50;;;;;;5052457;28;20083;-62
2023/10/04 05:55:58;;;;;;;40.85;15.38;;;;;;;;;;5052116;28;20052;-62
2023/10/04 05:59:02;;;;;;;29.90;14.85;;;;;;;;;;5052399;28;20633;-63
2023/10/04 06:02:07;;;;;;;35.88;16.05;;;21.80;93.00;;;;;;5051796;28;20055;-63
2023/10/04 06:05:14;;;;;;;34.22;15.57;;;21.60;91.90;;;;;;5050577;28;20040;-63
2023/10/04 06:08:18;;;;;;;40.70;16.67;;;21.50;92.00;;;;;;5052089;28;20044;-62
2023/10/04 06:11:23;;;;;;;40.45;15.38;;;21.20;92.40;;;;;;5051823;28;20504;-62
2023/10/04 06:14:28;;;;;;;33.72;15.98;;;20.90;93.00;;;;;;5050842;28;20040;-64
2023/10/04 06:17:33;;;;;;;31.52;14.00;;;21.00;93.30;;;;;;5051816;28;20056;-64
2023/10/04 06:20:38;;;;;;;27.83;13.75;;;21.10;92.40;;;;;;5051684;28;20040;-64
2023/10/04 06:23:43;;;;;;;32.10;13.38;;;21.30;92.10;;;;;;5050774;28;20044;-64
2023/10/04 06:26:47;;;;;;;30.48;13.02;;;21.50;91.20;;;;;;5051364;28;20048;-65
2023/10/04 06:29:51;;;;;;;24.08;11.70;;;21.80;91.20;;;;;;5051602;28;20067;-65
2023/10/04 06:32:57;;;;;;;32.90;13.27;;;22.10;91.00;;;;;;5051376;28;20055;-64
2023/10/04 06:36:01;;;;;;;25.92;14.18;;;22.50;90.10;;;;;;5051321;28;20060;-68
2023/10/04 06:39:07;;;;;;;33.00;16.17;;;22.50;90.30;;;;;;5051242;28;20040;-64
2023/10/04 06:42:11;;;;;;;35.40;16.50;;;22.10;90.90;;;;;;5051645;28;20063;-66
2023/10/04 06:45:23;;;;;;;37.45;16.42;;;22.10;90.70;;;;;;5050591;28;20119;-73
2023/10/04 06:48:29;;;;;;;37.83;17.92;;;22.10;91.00;;;;;;5051104;28;20044;-64
2023/10/04 06:51:33;;;;;;;34.35;17.02;;;22.10;91.10;;;;;;5051399;28;20048;-68
2023/10/04 06:54:37;;;;;;;35.55;17.88;;;22.20;91.40;;;;;;5050550;28;20102;-65
2023/10/04 06:57:43;;;;;;;35.20;18.00;;;22.40;91.10;;;;;;5050917;28;20056;-65
2023/10/04 07:00:47;;;;;;;53.13;19.50;;;22.40;91.00;;;;;;5051141;28;20047;-66
2023/10/04 07:03:51;;;;;;;35.83;18.13;;;22.70;91.10;;;;;;5050906;28;20500;-64
2023/10/04 07:06:55;;;;;;;34.63;18.00;;;23.00;91.00;;;;;;5050970;28;20130;-65
2023/10/04 07:09:59;;;;;;;28.60;18.42;;;23.40;90.50;;;;;;5051179;28;20079;-64
2023/10/04 07:13:03;;;;;;;31.55;18.25;;;23.40;90.80;;;;;;5050708;28;20052;-65
2023/10/04 07:16:07;;;;;;;34.50;16.25;;;23.60;91.00;;;;;;5050759;28;20507;-64
2023/10/04 07:19:12;;;;;;;40.55;19.33;;;23.90;90.90;;;;;;5050857;28;20044;-65
2023/10/04 07:22:21;;;;;;;29.98;17.17;;;24.00;90.80;;;;;;5050021;28;20052;-65
2023/10/04 07:25:26;;;;;;;29.58;16.75;;;24.00;90.60;;;;;;5050595;28;20048;-65
2023/10/04 07:28:31;;;;;;;27.92;15.95;;;23.90;90.50;;;;;;5048698;28;20040;-65
2023/10/04 07:31:36;;;;;;;29.13;16.38;;;23.80;90.60;;;;;;5048034;28;20044;-66
2023/10/04 07:34:40;;;;;;;28.88;15.18;;;23.90;91.00;;;;;;5049781;28;20056;-65
2023/10/04 07:37:44;;;;;;;28.15;14.05;;;24.10;90.60;;;;;;5050086;28;20056;-65
2023/10/04 07:40:49;;;;;;;30.73;16.20;;;24.40;90.40;;;;;;5050505;28;20040;-65
2023/10/04 07:43:53;;;;;;;29.20;16.38;;;24.50;89.60;;;;;;5050110;28;20048;-65
2023/10/04 07:47:01;;;;;;;27.60;15.57;;;24.80;90.10;;;;;;5050493;28;20044;-66
2023/10/04 07:50:08;;;;;;;30.88;15.15;;;24.70;90.30;;;;;;5050438;28;20044;-65
2023/10/04 07:53:12;;;;;;;31.50;14.63;;;25.30;90.20;;;;;;5050517;28;20048;-65
2023/10/04 07:56:15;;;;;;;38.35;18.58;;;25.20;90.00;;;;;;5049520;28;20212;-65
2023/10/04 07:59:19;;;;;;;26.58;16.88;;;25.40;89.60;;;;;;5050412;28;20044;-65
2023/10/04 08:02:23;;;;;;;39.95;21.95;;;25.50;89.00;;;;;;5050527;28;20056;-67
2023/10/04 08:05:32;;;;;;;31.38;18.77;;;25.60;88.30;;;;;;5050536;28;20052;-65
2023/10/04 08:08:36;;;;;;;36.95;18.15;;;25.70;89.20;;;;;;5050628;28;20048;-65
2023/10/04 08:11:41;;;;;;;32.80;18.17;;;25.90;88.40;;;;;;5052041;28;20048;-65
2023/10/04 08:14:47;;;;;;;26.27;15.75;;;25.90;89.30;;;;;;5054245;28;20047;-66
2023/10/04 08:17:52;;;;;;;33.63;16.58;;;26.10;89.60;;;;;;5054890;28;20060;-66
2023/10/04 08:20:57;;;;;;;24.48;13.68;;;26.00;88.80;;;;;;5054412;28;20500;-66
2023/10/04 08:24:01;;;;;;;21.88;12.88;;;26.00;90.20;;;;;;5054328;28;20044;-66
2023/10/04 08:27:05;;;;;;;19.25;12.15;;;26.00;90.50;;;;;;5054089;28;20392;-66
2023/10/04 08:30:14;;;;;;;18.58;13.23;;;26.20;90.40;;;;;;5054110;28;20055;-67
2023/10/04 08:33:31;;;;;;;21.35;13.85;;;26.20;90.10;;;;;;5054069;28;20480;-65
2023/10/04 08:36:39;;;;;;;36.08;14.93;;;26.40;89.60;;;;;;5054030;28;20056;-66
2023/10/04 08:39:43;;;;;;;24.52;15.00;;;26.20;90.00;;;;;;5053794;28;20068;-66
2023/10/04 08:42:50;;;;;;;16.23;12.73;;;26.10;90.30;;;;;;5053808;28;20060;-66
2023/10/04 08:45:56;;;;;;;17.42;11.80;;;25.50;90.30;;;;;;5052752;28;20503;-65
2023/10/04 08:49:02;;;;;;;18.25;11.85;;;26.30;90.50;;;;;;5053457;28;20048;-67
2023/10/04 08:52:23;;;;;;;16.17;11.05;;;26.60;89.60;;;;;;5053817;28;20052;-66
2023/10/04 08:55:29;;;;;;;20.50;11.70;;;26.80;89.20;;;;;;5053264;28;20044;-67
2023/10/04 08:58:34;;;;;;;19.33;11.23;;;27.10;89.60;;;;;;5053255;28;20056;-65
2023/10/04 09:01:39;;;;;;;17.83;11.73;;;27.00;89.60;;;;;;5053612;28;20056;-66
2023/10/04 09:04:46;;;;;;;19.73;11.65;;;27.10;89.30;;;;;;5053540;28;20055;-66
2023/10/04 09:07:51;;;;;;;14.75;10.73;;;27.20;89.00;;;;;;5053009;28;20048;-66
2023/10/04 09:10:55;;;;;;;14.52;10.60;;;27.30;89.20;;;;;;5041124;28;20048;-67
2023/10/04 09:13:59;;;;;;;18.48;12.05;;;27.50;88.20;;;;;;5053148;28;20044;-66
2023/10/04 09:17:05;;;;;;;18.35;11.60;;;27.50;88.30;;;;;;5052927;28;20056;-67
2023/10/04 09:20:15;;;;;;;20.30;12.05;;;27.50;88.00;;;;;;5053093;28;20456;-66
2023/10/04 09:23:22;;;;;;;17.48;11.60;;;27.60;88.00;;;;;;5040416;28;20116;-66
2023/10/04 09:26:26;;;;;;;16.77;10.32;;;27.70;87.60;;;;;;5052583;28;20040;-66
2023/10/04 09:29:31;;;;;;;27.02;13.82;;;27.40;86.50;;;;;;5053138;28;20496;-66
2023/10/04 09:32:38;;;;;;;24.30;13.20;;;27.90;86.50;;;;;;5052078;28;20040;-67
2023/10/04 09:35:43;;;;;;;15.40;10.80;;;27.90;86.30;;;;;;5051895;28;20044;-66
2023/10/04 09:39:07;;;;;;;19.58;11.88;;;27.90;86.40;;;;;;5052655;28;20120;-66
2023/10/04 09:42:14;;;;;;;19.75;12.43;;;27.90;85.80;;;;;;5052545;28;20044;-65
2023/10/04 09:45:26;;;;;;;17.17;11.40;;;27.90;85.70;;;;;;5052411;28;20047;-66
2023/10/04 09:48:31;;;;;;;18.60;10.32;;;28.00;85.90;;;;;;5052348;28;20576;-66
2023/10/04 09:51:36;;;;;;;15.98;11.13;;;28.00;84.50;;;;;;5052661;28;20064;-67
2023/10/04 09:54:40;;;;;;;23.00;13.48;;;28.10;84.80;;;;;;5052612;28;20040;-66
2023/10/04 09:57:44;;;;;;;18.25;11.90;;;28.10;84.80;;;;;;5052369;28;20667;-67
2023/10/04 10:00:50;;;;;;;19.45;12.23;;;28.10;84.90;;;;;;5052211;28;20048;-66
2023/10/04 10:04:02;;;;;;;23.25;12.68;;;28.20;84.20;;;;;;5051333;28;20048;-66
2023/10/04 10:07:13;;;;;;;17.35;11.10;;;28.20;84.00;;;;;;5052121;28;20043;-66
2023/10/04 10:10:20;;;;;;;17.95;10.48;;;28.30;84.60;;;;;;5051887;28;20132;-66
2023/10/04 10:13:25;;;;;;;20.83;13.13;;;28.20;83.10;;;;;;5052076;28;20040;-67
2023/10/04 10:16:30;;;;;;;21.15;12.77;;;28.30;84.00;;;;;;5051767;28;20429;-65
2023/10/04 10:19:34;;;;;;;19.55;10.93;;;28.30;83.70;;;;;;5052264;28;20072;-66
2023/10/04 10:22:58;;;;;;;22.02;11.88;;;28.40;84.30;;;;;;5051347;28;20072;-67
2023/10/04 10:26:33;;;;;;;21.30;11.38;;;28.50;83.80;;;;;;5054091;28;20052;-66
2023/10/04 10:29:37;;;;;;;19.95;11.63;;;28.60;84.50;;;;;;5051943;28;20060;-66
2023/10/04 10:32:55;;;;;;;19.50;10.57;;;28.60;85.10;;;;;;5051610;28;20649;-67
2023/10/04 10:35:59;;;;;;;15.23;10.30;;;28.80;83.40;;;;;;5052020;28;20377;-66
2023/10/04 10:39:19;;;;;;;15.38;10.07;;;28.80;83.90;;;;;;5051896;28;20048;-66
2023/10/04 10:42:23;;;;;;;19.55;11.50;;;28.80;83.10;;;;;;5051605;28;20051;-66
2023/10/04 10:45:27;;;;;;;14.82;9.65;;;28.80;83.60;;;;;;5051440;28;20511;-66
2023/10/04 10:48:34;;;;;;;17.02;9.57;;;28.80;82.90;;;;;;5051513;28;20044;-67
2023/10/04 10:51:42;;;;;;;19.75;10.02;;;28.90;83.40;;;;;;5051410;28;20051;-66
2023/10/04 10:54:47;;;;;;;16.50;10.95;;;28.70;82.40;;;;;;5051172;28;20060;-66
2023/10/04 10:57:51;;;;;;;17.45;10.18;;;28.70;82.30;;;;;;5051251;28;20511;-66
2023/10/04 11:00:56;;;;;;;16.38;10.85;;;28.40;81.90;;;;;;5051455;28;20172;-66
2023/10/04 11:04:00;;;;;;;13.23;8.73;;;28.60;82.30;;;;;;5051277;28;20048;-66
2023/10/04 11:07:06;;;;;;;17.23;10.40;;;28.60;82.80;;;;;;5051023;28;20043;-66
2023/10/04 11:10:15;;;;;;;14.90;10.40;;;28.50;82.10;;;;;;5050445;28;20516;-66
2023/10/04 11:13:21;;;;;;;13.82;9.05;;;28.50;82.20;;;;;;5050884;28;20044;-66
2023/10/04 11:16:29;;;;;;;13.25;9.15;;;28.40;82.70;;;;;;5050901;28;20595;-68
2023/10/04 11:19:34;;;;;;;17.17;11.52;;;28.40;83.00;;;;;;5051285;28;20059;-67
2023/10/04 11:22:39;;;;;;;15.45;9.75;;;28.40;83.50;;;;;;5050268;28;20055;-67
2023/10/04 11:25:44;;;;;;;16.95;9.80;;;28.60;83.70;;;;;;5049185;28;20051;-66
2023/10/04 11:28:49;;;;;;;14.82;9.30;;;28.30;84.40;;;;;;5049124;28;20079;-67
2023/10/04 11:31:56;;;;;;;16.90;9.45;;;28.30;84.90;;;;;;5049907;28;20052;-67
2023/10/04 11:35:09;;;;;;;21.63;10.20;;;28.20;84.60;;;;;;5049777;28;20067;-67
2023/10/04 11:38:15;;;;;;;14.55;9.57;;;28.20;85.10;;;;;;5050124;28;20048;-65
2023/10/04 11:41:21;;;;;;;21.80;10.82;;;27.80;85.00;;;;;;5051010;28;20064;-67
2023/10/04 11:44:25;;;;;;;17.50;11.65;;;28.50;85.40;;;;;;5050880;28;20044;-67
2023/10/04 11:47:34;;;;;;;16.10;10.48;;;28.10;85.30;;;;;;5053839;28;20052;-66
2023/10/04 11:50:50;;;;;;;15.90;9.77;;;28.00;85.80;;;;;;5054912;28;20100;-66
2023/10/04 11:53:54;;;;;;;16.17;11.13;;;28.00;86.10;;;;;;5054849;28;20392;-66
2023/10/04 11:56:58;;;;;;;13.90;9.55;;;28.10;85.80;;;;;;5054366;28;20059;-67
2023/10/04 12:00:16;;;;;;;18.02;10.80;;;28.00;86.30;;;;;;5053977;28;20048;-66
2023/10/04 12:03:20;;;;;;;16.35;10.20;;;28.10;86.70;;;;;;5054590;28;20047;-67
2023/10/04 12:06:26;;;;;;;14.38;9.88;;;28.10;86.40;;;;;;5052587;28;20048;-66
2023/10/04 12:09:33;;;;;;;17.75;10.35;;;28.00;87.00;;;;;;5054035;28;20404;-67
2023/10/04 12:12:37;;;;;;;16.38;10.50;;;28.00;87.20;;;;;;5054073;28;20047;-66
2023/10/04 12:15:42;;;;;;;19.80;10.55;;;28.00;87.30;;;;;;5054103;28;20044;-66
2023/10/04 12:18:47;;;;;;;15.68;10.40;;;27.90;87.20;;;;;;5054368;28;20530;-67
2023/10/04 12:21:52;;;;;;;20.98;10.70;;;27.90;87.80;;;;;;5054534;28;20044;-67
2023/10/04 12:24:56;;;;;;;23.08;11.02;;;;;;;;;;5053855;28;20040;-67
2023/10/04 12:28:02;;;;;;;14.35;9.52;;;27.80;87.30;;;;;;5052838;28;20043;-67
2023/10/04 12:31:07;;;;;;;16.13;9.73;;;27.80;87.80;;;;;;5053938;28;20060;-65
2023/10/04 12:34:11;;;;;;;15.07;9.45;;;27.70;87.40;;;;;;5053829;28;20056;-65
2023/10/04 12:37:15;;;;;;;15.65;10.27;;;27.80;88.00;;;;;;5053024;28;20052;-67
2023/10/04 12:40:23;;;;;;;18.75;10.48;;;28.30;88.50;;;;;;5052822;28;20040;-64
2023/10/04 12:43:27;;;;;;;16.50;10.05;;;27.80;88.30;;;;;;5054067;28;20048;-64
2023/10/04 12:46:31;;;;;;;16.90;10.40;;;27.70;88.10;;;;;;5053522;28;20087;-65
2023/10/04 12:49:37;;;;;;;24.80;12.60;;;27.70;88.50;;;;;;5053888;28;20036;-63
2023/10/04 12:52:45;;;;;;;15.32;9.70;;;27.60;88.10;;;;;;5053752;28;20048;-63
2023/10/04 12:55:52;;;;;;;16.38;10.55;;;27.90;88.80;;;;;;5053355;28;20040;-62
2023/10/04 12:58:56;;;;;;;20.23;10.48;;;27.50;88.50;;;;;;5053444;28;20519;-64
2023/10/04 13:02:00;;;;;;;14.90;10.18;;;28.00;88.80;;;;;;5053687;28;20492;-65
2023/10/04 13:05:05;;;;;;;17.90;10.07;;;27.50;88.90;;;;;;5052837;28;20052;-64
2023/10/04 13:08:15;;;;;;;22.50;10.70;;;27.50;89.10;;;;;;5053355;28;20040;-63
2023/10/04 13:11:19;;;;;;;12.82;9.75;;;27.50;89.40;;;;;;5053305;28;20491;-65
2023/10/04 13:14:23;;;;;;;15.93;10.45;;;26.90;88.10;;;;;;5053189;28;20048;-66
2023/10/04 13:17:27;;;;;;;16.15;10.02;;;27.50;89.10;;;;;;5052976;28;20052;-68
2023/10/04 13:20:32;;;;;;;16.95;10.40;;;27.40;89.60;;;;;;5053130;28;20146;-66
2023/10/04 13:23:36;;;;;;;17.10;8.70;;;27.40;89.20;;;;;;5053220;28;20048;-65
2023/10/04 13:26:40;;;;;;;15.15;9.40;;;27.50;89.80;;;;;;5052984;28;20518;-65
2023/10/04 13:29:44;;;;;;;14.43;9.75;;;27.30;89.40;;;;;;5052870;28;20373;-65
2023/10/04 13:32:48;;;;;;;14.70;9.30;;;27.30;89.50;;;;;;5053115;28;20048;-64
2023/10/04 13:35:52;;;;;;;13.32;9.10;;;27.30;90.00;;;;;;5052965;28;20060;-64
2023/10/04 13:38:56;;;;;;;22.25;10.65;;;27.30;90.00;;;;;;5052945;28;20060;-72
2023/10/04 13:42:00;;;;;;;18.80;8.57;;;27.30;90.10;;;;;;5051872;28;20048;-72
2023/10/04 13:45:06;;;;;;;12.68;8.70;;;27.30;90.40;;;;;;5052506;28;20044;-65
2023/10/04 13:48:10;;;;;;;14.27;9.40;;;27.20;90.20;;;;;;5051587;28;20405;-67
2023/10/04 13:51:23;;;;;;;13.70;8.55;;;26.90;90.10;;;;;;5052663;28;20040;-65
2023/10/04 13:54:31;;;;;;;13.95;8.75;;;27.10;90.30;;;;;;5052476;28;20059;-66
2023/10/04 13:57:38;;;;;;;11.95;8.45;;;27.10;90.10;;;;;;5052172;28;20048;-68
2023/10/04 14:00:44;;;;;;;12.65;9.25;;;27.10;90.10;;;;;;5052285;28;20040;-66
2023/10/04 14:03:48;;;;;;;14.38;8.80;;;27.10;90.20;;;;;;5052217;28;20393;-66
2023/10/04 14:06:52;;;;;;;12.68;8.43;;;27.00;90.30;;;;;;5052050;28;20044;-66
2023/10/04 14:09:55;;;;;;;23.67;10.73;;;26.90;90.50;;;;;;5051180;28;20404;-67
2023/10/04 14:13:01;;;;;;;12.65;7.90;;;27.00;90.20;;;;;;5052027;28;20437;-65
2023/10/04 14:16:07;;;;;;;13.60;7.93;;;26.80;90.30;;;;;;5051942;28;20504;-65
2023/10/04 14:19:12;;;;;;;18.05;8.50;;;26.90;90.30;;;;;;5052144;28;20083;-63
2023/10/04 14:22:16;;;;;;;12.23;7.90;;;26.90;90.20;;;;;;5051551;28;20036;-67
2023/10/04 14:25:20;;;;;;;10.95;8.20;;;26.90;90.40;;;;;;5051466;28;20048;-66
2023/10/04 14:28:25;;;;;;;14.18;8.18;;;26.80;90.50;;;;;;5051857;28;20044;-65
2023/10/04 14:31:29;;;;;;;16.10;9.32;;;26.80;90.70;;;;;;5051667;28;20040;-66
2023/10/04 14:34:33;;;;;;;19.55;9.40;;;26.80;90.60;;;;;;5051348;28;20056;-65
2023/10/04 14:37:37;;;;;;;19.17;8.48;;;26.70;90.60;;;;;;5051647;28;20055;-67
2023/10/04 14:40:45;;;;;;;11.35;8.43;;;26.70;90.70;;;;;;5051505;28;20502;-66
2023/10/04 14:43:49;;;;;;;19.63;8.40;;;26.70;90.80;;;;;;5051929;28;20052;-66
2023/10/04 14:46:53;;;;;;;13.02;7.80;;;26.70;91.00;;;;;;5051419;28;20472;-66
2023/10/04 14:49:57;;;;;;;12.52;8.10;;;26.70;91.00;;;;;;5051691;28;20048;-67
2023/10/04 14:53:01;;;;;;;16.45;8.77;;;26.30;90.80;;;;;;5051665;28;20048;-67
2023/10/04 14:56:05;;;;;;;21.83;8.70;;;26.60;91.10;;;;;;5050672;28;20068;-67
2023/10/04 14:59:09;;;;;;;11.68;7.93;;;26.60;91.50;;;;;;5050638;28;20048;-66
2023/10/04 15:02:14;;;;;;;13.55;7.82;;;26.60;91.20;;;;;;5051776;28;20047;-64
2023/10/04 15:05:18;;;;;;;15.80;9.85;;;26.60;91.00;;;;;;5051091;28;20048;-65
2023/10/04 15:08:22;;;;;;;16.23;8.48;;;26.50;90.60;;;;;;5049477;28;20067;-66
2023/10/04 15:11:29;;;;;;;15.18;8.60;;;26.50;90.90;;;;;;5049876;28;20043;-65
2023/10/04 15:14:32;;;;;;;15.35;8.77;;;26.50;91.00;;;;;;5050612;28;20368;-65
2023/10/04 15:17:38;;;;;;;17.45;8.00;;;26.40;91.10;;;;;;5050989;28;20055;-65
2023/10/04 15:20:42;;;;;;;16.15;8.55;;;26.40;91.40;;;;;;5051196;28;20040;-65
2023/10/04 15:23:46;;;;;;;20.13;8.77;;;26.40;91.40;;;;;;5051332;28;20499;-65
2023/10/04 15:26:51;;;;;;;16.02;8.27;;;26.30;91.70;;;;;;5050754;28;20629;-64
2023/10/04 15:29:55;;;;;;;14.40;8.90;;;26.30;92.00;;;;;;5050769;28;20377;-65
2023/10/04 15:32:59;;;;;;;18.80;9.13;;;26.30;92.20;;;;;;5050905;28;20052;-65
2023/10/04 15:36:03;;;;;;;13.73;8.40;;;26.10;91.90;;;;;;5050713;28;20051;-65
2023/10/04 15:42:30;;;;;;;12.75;8.85;;;27.00;92.50;;;;;;5050584;28;20044;-64
2023/10/04 15:45:34;;;;;;;12.68;8.73;;;26.10;92.50;;;;;;5050372;28;20049;-66
2023/10/04 15:48:38;;;;;;;13.73;8.18;;;26.00;92.50;;;;;;5050923;28;20048;-65
2023/10/04 15:51:43;;;;;;;13.02;8.40;;;25.60;92.50;;;;;;5050398;28;20048;-63
2023/10/04 15:54:47;;;;;;;19.70;8.60;;;25.90;92.50;;;;;;5050436;28;20044;-65
2023/10/04 15:57:51;;;;;;;11.13;8.00;;;25.90;92.30;;;;;;5050258;28;20064;-66
2023/10/04 16:00:56;;;;;;;12.18;7.72;;;25.90;92.50;;;;;;5050517;28;20495;-66
2023/10/04 16:04:00;;;;;;;22.25;8.80;;;25.80;92.70;;;;;;5050634;28;20405;-67
2023/10/04 16:07:04;;;;;;;16.27;7.72;;;25.80;92.90;;;;;;5050322;28;20044;-65
2023/10/04 16:10:09;;;;;;;11.75;7.70;;;25.70;92.90;;;;;;5049157;28;20044;-66
2023/10/04 16:13:06;;;;;;;12.30;8.13;;;25.70;92.80;;;;;;5409476;22;20050;-66
2023/10/04 16:16:11;;;;;;;15.35;8.07;;;25.70;93.00;;;;;;5030237;28;20376;-66
2023/10/04 16:19:15;;;;;;;19.75;8.10;;;25.60;93.20;;;;;;5030507;28;20053;-68
2023/10/04 16:22:19;;;;;;;13.15;7.93;;;25.50;93.30;;;;;;5030211;28;20052;-67